Osceola, MI

9:59 PM EDT on March 26, 2015 (GMT -0400)
Houghton County Memorial | | Change Station
CLOSE
Current Station
Airport
Location: Houghton,
Elevation: 1079 ft
Nearby Weather Stations

Elev 1079 ft 47.17 °N, 88.49 °W | Updated 6 minutes ago

Clear
Clear
12 °F
Feels Like 3 °F
N
6
Wind Variable Wind from NNE

Today
High -- | Low -- °F
--% Chance of Precip.
Yesterday
High -- | Low -- °F
Precip. -- in
7:45 AM 8:14 PM
Waxing Crescent, 48% visible
Pressure 30.19 in
Visibility 10.0 miles
Clouds Clear
Windchill 3 °F
Dew Point 5 °F
Humidity 73%
Rainfall 0.08 in
Snow Depth Not available.
UV 0 out of 12
Pollen .30 out of 12
Air Quality Not available.
Flu Activity Not available.
METAR KCMX 270153Z AUTO 02005KT 10SM CLR M11/M15 A3012 RMK AO2 SLP224 T11111150

More Conditions Fewer Conditions

Pressure 30.19 in
Visibility 10.0 miles
Clouds Clear
Windchill 3 °F
Dew Point 5 °F
Humidity 73%
Rainfall 0.08 in
Snow Depth Not available.
UV 0 out of 12
Pollen .30 out of 12
Air Quality Not available.
Flu Activity Not available.
METAR KCMX 270153Z AUTO 02005KT 10SM CLR M11/M15 A3012 RMK AO2 SLP224 T11111150

More Conditions Fewer Conditions

10-Day Weather Forecast

Almanac

Astronomy

Mar. 26, 2015 Rise Set
Actual Time
Civil Twilight
Nautical Twilight
Astronomical Twilight
Moon
Length of Visible Light
Length of Day
Tomorrow will be .
, % of the Moon is Illuminated

Today's Extremes

State Highs State Lows

Community

WunderPhotos

Upload Photos

1,808,680 photos uploaded!

WunderBlogs® & News

Nearby

Air Quality

  Air Quality AQ Index Pollutant
Not available.

Snow Depth

Station Depth Elevation

Earthquake Activity

City Distance Mag. Time & Date
Minimum magnitude displayed is 2.5.

Coastal Water Temperatures

Place Temperature

Stations

Nearby Weather Stations

Station Location Temp. Windchill Dew Point Humidity Wind Precip. Elev Updated Type